createdAt,value
2023-01-04T00:13:51.779Z,3.1
2023-01-04T00:29:01.203Z,3.2
2023-01-04T00:44:13.904Z,2.7
2023-01-04T00:59:23.323Z,2.8
2023-01-04T01:14:32.505Z,2.2
2023-01-04T01:29:42.100Z,2.3
2023-01-04T01:44:51.635Z,2.6
2023-01-04T02:00:01.072Z,3.1
2023-01-04T02:15:13.517Z,3.1
2023-01-04T02:30:23.307Z,3.2
2023-01-04T02:45:32.543Z,2.7
2023-01-04T03:00:42.298Z,2.5
2023-01-04T03:15:52.276Z,2.9
2023-01-04T03:31:01.859Z,2.6
2023-01-04T03:46:13.716Z,2.8
2023-01-04T04:01:23.887Z,3.1
2023-01-04T04:16:34.203Z,2.7
2023-01-04T04:31:44.208Z,2.5
2023-01-04T04:46:53.788Z,3.7
2023-01-04T05:02:04.782Z,2.9
2023-01-04T05:17:18.145Z,2.7
2023-01-04T05:32:28.403Z,3.1
2023-01-04T05:47:37.861Z,3.1
2023-01-04T06:02:47.775Z,2.4
2023-01-04T06:17:57.645Z,2.8
2023-01-04T06:33:07.418Z,2.4
2023-01-04T06:48:18.788Z,1.8
2023-01-04T07:03:29.071Z,2
2023-01-04T07:18:39.381Z,1.8
2023-01-04T07:33:49.825Z,2.1
2023-01-04T07:49:00.606Z,1.4
2023-01-04T08:04:13.974Z,1.3
2023-01-04T08:19:24.546Z,1.3
2023-01-04T08:34:34.371Z,1.5
2023-01-04T08:49:44.253Z,1.4
2023-01-04T09:04:53.766Z,1.8
2023-01-04T09:20:03.919Z,1.2
2023-01-04T09:35:14.002Z,1.4
2023-01-04T09:50:23.653Z,1.4
2023-01-04T10:05:33.311Z,1.3
2023-01-04T10:21:29.832Z,1.3
2023-01-04T10:36:46.212Z,1.2
2023-01-04T10:51:56.259Z,1
2023-01-04T11:07:06.133Z,1.8
2023-01-04T11:22:15.771Z,1.1
2023-01-04T11:37:25.579Z,1.1
2023-01-04T11:52:35.195Z,1.2
2023-01-04T12:07:44.946Z,1.1
2023-01-04T12:22:55.479Z,1.1
2023-01-04T12:38:05.314Z,0.9
2023-01-04T12:53:31.596Z,1.2
2023-01-04T13:08:42.616Z,1.2
2023-01-04T13:23:52.726Z,1.6
2023-01-04T13:39:02.975Z,1.6
2023-01-04T13:54:14.609Z,2.7
2023-01-04T14:09:24.367Z,2
2023-01-04T14:25:09.291Z,2.2
2023-01-04T14:40:24.098Z,3.6
2023-01-04T14:55:33.906Z,4.9
2023-01-04T15:10:43.705Z,4.9
2023-01-04T15:25:53.520Z,2.7
2023-01-04T15:41:04.323Z,2.5
2023-01-04T15:56:14.357Z,3
2023-01-04T16:11:24.180Z,2.5
2023-01-04T16:26:34.092Z,3.7
2023-01-04T16:41:43.745Z,3
2023-01-04T16:56:53.593Z,2.7
2023-01-04T17:12:49.109Z,4.3
2023-01-04T17:27:59.794Z,2.4
2023-01-04T17:43:22.934Z,2.6
2023-01-04T17:58:32.708Z,2.6
2023-01-04T18:28:51.447Z,2.7
2023-01-04T18:44:33.133Z,2.7
2023-01-04T18:59:49.690Z,3.2
2023-01-04T19:14:59.521Z,3.4
2023-01-04T19:30:09.269Z,2.6
2023-01-04T19:45:19.248Z,3.8
2023-01-04T20:00:28.843Z,4.2
2023-01-04T20:15:38.472Z,4.1
2023-01-04T20:30:48.187Z,4.9
2023-01-04T20:45:57.900Z,4.9
2023-01-04T21:01:07.971Z,5.4
2023-01-04T21:16:18.818Z,5
2023-01-04T21:31:28.572Z,3.1
2023-01-04T21:46:38.780Z,4.1
2023-01-04T22:01:48.750Z,3.7
2023-01-04T22:16:59.207Z,4.3
2023-01-04T22:32:08.772Z,4
2023-01-04T22:47:18.543Z,3.2
2023-01-04T23:02:28.650Z,3.3
2023-01-04T23:17:38.633Z,4.2
2023-01-04T23:32:48.382Z,3.5
2023-01-04T23:47:58.314Z,4.5
